Terminal Aerodrome Forecast
Issued by NWS

Home | Current Version | Previous Version | Text Only | Print | Product List | Glossary On
Versions: 1 2 3 4 5 6 7 8 9 10 11 12 13 14 15
000
FTUS43 KOAX 290532
TAFBFF
TAF
KBFF 290532Z 2906/3006 32010KT P6SM VCSH BKN080
     FM291200 32007KT P6SM VCSH OVC050
     FM291800 36013KT P6SM -RA VCTS SCT015CB OVC050
     FM300000 03008KT P6SM BKN050=

USA.gov is the U.S. government's official web portal to all federal, state and local government web resources and services.